Latest Weather Observations for Rhyll

IDV60901

Issued at 7:01 am EST Sunday 24 July 2016 (issued every 10 minutes, with the page automatically refreshed every 10 minutes)

About weather observations | Map of Melbourne area stations | Latest observations for Melbourne area | Other Formats
Station Details ID: 086373 Name: RHYLL Lat: -38.46 Lon: 145.31 Height: 13.4 m
Data from the previous 72 hours. | See also: Recent months at Rhyll
Date/Time
EST
Temp
°C
App
Temp
°C
Dew
Point
°C
Rel
Hum
%
Delta-T
°C
Wind Press
QNH
hPa
Press
MSL
hPa
Rain since
9am
mm
Dir  Spd
km/h
Gust
km/h
Spd
kts
Gust
kts
24/07:00am 6.1 0.7 4.3 88 0.8 N 22 28 12 15 1010.2 1010.2 10.0
24/06:30am 6.3 0.5 4.3 87 0.9 N 24 32 13 17 1010.1 1010.1 10.0
24/06:00am 7.4 2.8 5.4 87 0.9 NNW 19 30 10 16 1010.2 1010.2 10.0
24/05:30am 6.7 1.8 5.3 91 0.6 N 20 26 11 14 1010.3 1010.3 10.0
24/05:00am 7.8 3.9 5.4 85 1.1 NNW 15 28 8 15 1010.6 1010.6 10.0
24/04:30am 7.5 4.3 5.3 86 1.0 NW 11 24 6 13 1010.9 1010.9 10.0
24/04:00am 7.6 4.5 5.6 87 0.9 NW 11 22 6 12 1011.1 1011.1 10.0
24/03:30am 7.5 4.3 5.3 86 1.0 NW 11 20 6 11 1011.0 1011.0 10.0
24/03:00am 7.2 4.9 5.5 89 0.8 WNW 7 17 4 9 1011.1 1011.1 10.0
24/02:30am 7.0 4.8 5.3 89 0.8 NW 6 13 3 7 1011.3 1011.3 10.0
24/02:00am 7.3 4.6 5.6 89 0.8 WNW 9 19 5 10 1011.2 1011.2 10.0
24/01:30am 7.2 4.1 5.5 89 0.8 W 11 19 6 10 1011.2 1011.2 10.0
24/01:00am 7.1 4.4 5.7 91 0.6 WNW 9 20 5 11 1011.3 1011.3 10.0
24/12:30am 7.0 4.7 5.8 92 0.5 WNW 7 15 4 8 1011.6 1011.6 10.0
24/12:00am 7.0 4.7 5.8 92 0.5 NW 7 15 4 8 1011.9 1011.9 10.0
 
Date/Time
EST
Temp
°C
App
Temp
°C
Dew
Point
°C
Rel
Hum
%
Delta-T
°C
Wind Press
QNH
hPa
Press
MSL
hPa
Rain since
9am
mm
Dir  Spd
km/h
Gust
km/h
Spd
kts
Gust
kts
23/11:30pm 7.2 4.2 6.0 92 0.5 NW 11 22 6 12 1011.8 1011.8 10.0
23/11:00pm 6.8 4.2 6.1 95 0.3 WNW 9 17 5 9 1011.8 1011.8 10.0
23/10:30pm 6.2 3.0 5.0 92 0.5 WSW 11 19 6 10 1012.2 1012.2 9.8
23/10:00pm 7.5 4.5 6.1 91 0.6 W 11 20 6 11 1012.1 1012.1 5.8
23/09:30pm 7.3 5.0 5.6 89 0.8 WNW 7 19 4 10 1011.5 1011.5 5.4
23/09:00pm 7.5 5.0 6.4 93 0.5 WNW 9 17 5 9 1011.3 1011.3 5.4
23/08:30pm 7.5 4.6 6.6 94 0.4 WNW 11 19 6 10 1011.0 1011.0 5.4
23/08:00pm 7.6 4.1 5.4 86 1.0 WNW 13 20 7 11 1010.6 1010.6 4.2
23/07:30pm 7.3 3.8 5.4 88 0.8 W 13 24 7 13 1010.4 1010.4 4.2
23/07:00pm 7.4 3.9 5.5 88 0.8 W 13 24 7 13 1010.4 1010.4 4.0
23/06:30pm 7.6 5.2 5.2 85 1.1 WNW 7 13 4 7 1009.6 1009.6 4.0
23/06:00pm 7.0 3.9 5.5 90 0.7 W 11 22 6 12 1009.1 1009.1 4.0
23/05:30pm 6.7 1.8 5.0 89 0.7 W 20 35 11 19 1008.9 1008.9 4.0
23/05:00pm 8.3 3.7 5.6 83 1.2 W 19 41 10 22 1008.2 1008.2 2.8
23/04:30pm 6.9 2.7 5.5 91 0.6 WSW 17 37 9 20 1007.7 1007.7 2.8
23/04:21pm 6.5 0.8 5.1 91 0.6 WSW 24 46 13 25 1007.7 1007.7 2.8
23/04:09pm 8.0 1.7 3.5 73 1.9 W 26 69 14 37 1007.7 1007.7 2.0
23/04:00pm 8.8 4.0 4.6 75 1.9 W 19 32 10 17 1007.0 1007.0 1.8
23/03:30pm 8.6 3.6 4.8 77 1.7 W 20 46 11 25 1007.0 1007.0 1.8
23/03:00pm 7.6 1.2 5.1 84 1.1 W 28 48 15 26 1006.4 1006.4 1.8
23/02:30pm 9.1 5.2 5.5 78 1.6 W 15 26 8 14 1005.9 1005.9 1.0
23/02:00pm 10.7 6.0 5.0 68 2.6 W 19 35 10 19 1005.2 1005.2 0.8
23/01:30pm 10.1 3.7 3.2 62 3.0 WSW 26 54 14 29 1005.2 1005.2 0.8
23/01:00pm 9.1 3.6 4.1 71 2.2 W 22 43 12 23 1005.2 1005.2 0.8
23/12:30pm 7.9 1.5 3.4 73 1.9 W 26 48 14 26 1005.3 1005.3 0.6
23/12:28pm 8.4 2.5 3.7 72 2.0 W 24 48 13 26 1005.3 1005.3 0.6
23/12:00pm 7.9 2.9 4.5 79 1.5 W 20 43 11 23 1004.9 1004.9 0.2
23/11:30am 7.2 1.2 3.3 76 1.6 WSW 24 46 13 25 1005.0 1005.0 0.2
23/11:00am 7.2 0.9 3.8 79 1.5 SW 26 46 14 25 1004.5 1004.5 0.2
23/10:49am 9.4 2.5 2.7 63 2.9 WSW 28 59 15 32 1004.5 1004.5 0.2
23/10:30am 8.2 2.1 2.7 68 2.3 WSW 24 43 13 23 1004.2 1004.2 0.2
23/10:11am 9.1 2.1 1.8 60 3.0 WSW 28 54 15 29 1003.6 1003.6 0.2
23/10:00am 9.0 3.7 3.0 66 2.6 WSW 20 54 11 29 1003.4 1003.4 0.2
23/09:44am 7.8 1.1 3.7 75 1.8 SW 28 52 15 28 1003.1 1003.1 0.2
23/09:30am 7.5 1.8 3.0 73 1.9 WSW 22 41 12 22 1002.8 1002.8 0.2
23/09:10am 8.0 1.3 3.8 75 1.8 SW 28 50 15 27 1002.5 1002.5 0.0
23/09:00am 8.0 1.3 1.4 63 2.7 WSW 26 48 14 26 1002.1 1002.1 9.2
23/08:40am 7.6 0.8 2.9 72 2.0 WSW 28 52 15 28 1001.7 1001.7 9.2
23/08:30am 8.8 1.6 0.8 57 3.2 WSW 28 46 15 25 1001.3 1001.3 9.2
23/08:20am 8.6 1.4 0.6 57 3.2 WSW 28 54 15 29 1001.0 1001.0 9.2
23/08:00am 8.2 1.6 1.8 64 2.7 WSW 26 46 14 25 1000.9 1000.9 9.2
23/07:30am 8.4 0.6 2.6 67 2.4 WSW 33 59 18 32 999.9 999.9 9.2
23/07:00am 8.3 1.7 4.3 76 1.8 WSW 28 54 15 29 999.0 999.0 9.2
23/06:38am 7.2 0.9 5.5 89 0.8 WSW 28 50 15 27 998.6 998.6 9.0
23/06:30am 7.6 2.9 6.1 90 0.7 WSW 20 39 11 21 998.6 998.6 9.0
23/06:10am 7.5 2.0 6.0 90 0.7 W 24 69 13 37 997.8 997.8 8.2
23/06:00am 7.4 2.7 6.2 92 0.5 W 20 33 11 18 997.2 997.2 8.2
23/05:30am 7.2 0.7 6.3 94 0.4 WSW 30 54 16 29 997.0 997.0 8.0
23/05:27am 7.0 0.7 5.9 93 0.5 W 28 54 15 29 996.9 996.9 8.0
23/05:00am 8.0 3.7 6.8 92 0.6 W 19 33 10 18 996.0 996.0 6.4
23/04:30am 8.3 4.4 6.9 91 0.7 W 17 32 9 17 995.0 995.0 6.0
23/04:00am 9.1 5.0 6.0 81 1.4 W 17 32 9 17 994.4 994.4 4.4
23/03:30am 8.1 4.2 6.9 92 0.6 WSW 17 32 9 17 993.9 993.9 4.4
23/03:00am 7.9 1.8 6.4 90 0.7 SW 28 54 15 29 992.5 992.5 4.2
23/02:49am 8.2 2.1 6.8 91 0.6 WSW 28 54 15 29 992.0 992.0 4.0
23/02:30am 9.5 5.0 7.1 85 1.1 WNW 20 35 11 19 991.0 991.0 3.4
23/02:00am 10.6 6.2 6.7 77 1.9 NW 19 43 10 23 990.8 990.8 3.4
23/01:30am 10.6 6.6 6.7 77 1.8 NW 17 37 9 20 991.1 991.1 3.4
23/01:00am 10.5 7.5 7.6 82 1.4 WNW 13 30 7 16 991.4 991.4 3.4
23/12:30am 10.0 7.0 7.9 87 1.0 NW 13 30 7 16 991.7 991.7 3.4
23/12:00am 9.5 7.0 8.3 92 0.6 NW 11 19 6 10 991.7 991.7 3.4
 
Date/Time
EST
Temp
°C
App
Temp
°C
Dew
Point
°C
Rel
Hum
%
Delta-T
°C
Wind Press
QNH
hPa
Press
MSL
hPa
Rain since
9am
mm
Dir  Spd
km/h
Gust
km/h
Spd
kts
Gust
kts
22/11:30pm 9.5 6.7 8.6 94 0.4 NW 13 24 7 13 991.8 991.8 3.4
22/11:00pm 9.8 6.4 9.0 95 0.4 NW 17 33 9 18 992.1 992.1 3.0
22/10:30pm 10.3 6.6 9.4 94 0.4 NNW 19 30 10 16 992.2 992.2 2.0
22/10:00pm 10.6 8.0 9.4 92 0.6 NNW 13 19 7 10 992.6 992.6 1.4
22/09:30pm 10.7 6.8 9.6 93 0.6 NNW 20 26 11 14 993.0 993.0 1.4
22/09:00pm 10.7 8.1 9.5 92 0.6 NW 13 22 7 12 993.6 993.6 1.4
22/08:30pm 10.8 9.1 9.7 93 0.6 NW 9 15 5 8 993.6 993.6 1.4
22/08:00pm 11.0 8.9 9.8 92 0.6 NW 11 19 6 10 994.2 994.2 1.4
22/07:30pm 11.3 10.1 9.7 90 0.8 NW 6 15 3 8 994.0 994.0 1.4
22/07:00pm 11.6 10.5 10.0 90 0.8 WNW 6 15 3 8 994.2 994.2 1.4
22/06:30pm 12.1 10.6 10.5 90 0.8 NW 9 20 5 11 993.9 993.9 1.4
22/06:00pm 12.3 10.8 10.5 89 0.9 WNW 9 17 5 9 994.2 994.2 1.4
22/05:30pm 11.9 11.5 11.0 94 0.5 WNW 4 11 2 6 994.0 994.0 1.4
22/05:00pm 12.1 11.3 11.0 93 0.6 NW 6 13 3 7 994.2 994.2 1.4
22/04:30pm 12.1 11.2 10.7 91 0.7 NW 6 13 3 7 994.1 994.1 1.4
22/04:00pm 12.1 11.0 10.5 90 0.8 WNW 7 17 4 9 993.9 993.9 1.4
22/03:30pm 12.0 10.5 10.4 90 0.8 WNW 9 17 5 9 994.0 994.0 1.4
22/03:00pm 11.9 9.2 10.3 90 0.8 WNW 15 24 8 13 993.9 993.9 1.4
22/02:30pm 11.8 8.2 9.9 88 1.0 W 19 30 10 16 994.1 994.1 1.2
22/02:00pm 11.4 7.7 9.5 88 1.0 W 19 39 10 21 994.0 994.0 1.2
22/01:30pm 12.1 7.0 9.1 82 1.5 WNW 26 61 14 33 994.4 994.4 0.8
22/01:29pm 12.3 7.7 9.5 83 1.4 WNW 24 61 13 33 994.4 994.4 0.8
22/01:00pm 15.6 12.2 11.2 75 2.4 NW 20 35 11 19 993.4 993.4 0.2
22/12:30pm 14.8 11.4 10.6 76 2.2 NW 19 33 10 18 993.6 993.6 0.2
22/12:00pm 14.8 11.8 10.8 77 2.1 NW 17 37 9 20 993.6 993.6 0.2
22/11:30am 14.4 12.1 11.7 84 1.4 NW 15 28 8 15 994.2 994.2 0.2
22/11:00am 14.3 12.8 13.0 92 0.7 NW 13 24 7 13 994.6 994.6 0.2
22/10:30am 14.0 13.1 13.7 98 0.2 NW 11 20 6 11 995.0 995.0 0.2
22/10:00am 14.1 13.6 13.9 99 0.1 NW 9 19 5 10 995.2 995.2 0.2
22/09:30am 14.0 14.4 13.8 99 0.1 W 4 9 2 5 995.5 995.5 0.2
22/09:00am 14.2 14.2 14.2 100 0.0 NW 7 13 4 7 995.5 995.5 13.6
22/08:30am 13.9 13.8 13.9 100 0.0 NW 7 13 4 7 995.7 995.7 13.6
22/08:00am 13.9 13.8 13.9 100 0.0 NW 7 17 4 9 995.7 995.7 13.6
22/07:30am 13.8 13.7 13.8 100 0.0 NW 7 17 4 9 996.2 996.2 13.6
22/07:00am 14.1 12.5 13.9 99 0.1 NW 15 30 8 16 996.5 996.5 12.8
22/06:30am 14.0 11.0 13.8 99 0.1 NNW 22 33 12 18 996.8 996.8 12.6
22/06:00am 14.5 9.2 14.3 99 0.1 NNW 35 61 19 33 997.5 997.5 8.8
22/05:57am 14.4 7.4 14.2 99 0.1 NNW 44 63 24 34 997.0 997.0 7.8
22/05:30am 14.8 7.9 14.0 95 0.5 NNW 43 57 23 31 996.1 996.1 6.0
22/05:00am 14.5 7.4 13.4 93 0.6 N 43 54 23 29 996.6 996.6 4.8
22/04:30am 15.1 9.1 12.2 83 1.6 N 35 46 19 25 997.4 997.4 3.2
22/04:00am 14.7 9.1 12.0 84 1.5 N 33 50 18 27 998.2 998.2 3.2
22/03:30am 14.7 8.2 11.8 83 1.6 N 37 50 20 27 999.6 999.6 3.0
22/03:00am 15.6 7.4 11.6 77 2.2 N 46 59 25 32 1000.7 1000.7 2.8
22/02:30am 15.7 7.1 11.7 77 2.2 N 48 61 26 33 1000.5 1000.5 2.8
22/02:00am 15.1 7.2 11.5 79 1.9 N 44 54 24 29 1001.3 1001.3 2.8
22/01:30am 14.9 7.2 11.5 80 1.8 N 43 52 23 28 1002.0 1002.0 2.8
22/01:00am 14.7 6.4 11.3 80 1.8 NNW 46 56 25 30 1002.7 1002.7 2.8
22/12:30am 14.5 7.1 11.3 81 1.7 NNW 41 52 22 28 1003.5 1003.5 2.8
22/12:00am 14.5 7.5 11.3 81 1.7 NNW 39 48 21 26 1004.7 1004.7 2.8
 
Date/Time
EST
Temp
°C
App
Temp
°C
Dew
Point
°C
Rel
Hum
%
Delta-T
°C
Wind Press
QNH
hPa
Press
MSL
hPa
Rain since
9am
mm
Dir  Spd
km/h
Gust
km/h
Spd
kts
Gust
kts
21/11:30pm 14.8 6.8 11.2 79 1.9 NNW 44 54 24 29 1005.1 1005.1 2.8
21/11:00pm 14.7 6.9 11.3 80 1.8 NNW 43 52 23 28 1005.2 1005.2 2.8
21/10:30pm 14.7 7.7 11.3 80 1.8 N 39 46 21 25 1005.7 1005.7 2.8
21/10:00pm 14.3 10.5 11.3 82 1.6 N 22 33 12 18 1006.1 1006.1 2.8
21/09:30pm 13.7 10.8 11.0 84 1.4 N 17 26 9 14 1006.9 1006.9 2.8
21/09:00pm 13.6 9.3 10.8 83 1.5 N 24 35 13 19 1007.5 1007.5 2.8
21/08:30pm 13.6 8.9 10.8 83 1.5 N 26 33 14 18 1008.1 1008.1 2.8
21/08:00pm 13.2 8.9 10.7 85 1.3 N 24 30 13 16 1008.5 1008.5 2.8
21/07:30pm 13.4 8.0 10.9 85 1.3 N 30 35 16 19 1009.3 1009.3 2.8
21/07:00pm 13.7 8.7 10.9 83 1.5 N 28 33 15 18 1009.4 1009.4 2.8
21/06:30pm 13.9 7.6 11.2 84 1.4 NNW 35 43 19 23 1009.3 1009.3 2.8
21/06:00pm 14.2 7.6 11.4 83 1.5 NNW 37 44 20 24 1009.5 1009.5 2.8
21/05:30pm 13.9 10.2 11.4 85 1.3 N 22 28 12 15 1010.1 1010.1 2.8
21/05:00pm 14.7 11.6 11.7 82 1.6 NNW 19 22 10 12 1010.4 1010.4 2.8
21/04:30pm 14.6 10.2 11.6 82 1.6 NNW 26 30 14 16 1010.2 1010.2 2.8
21/04:00pm 14.4 11.7 11.6 83 1.5 N 17 22 9 12 1010.6 1010.6 2.8
21/03:30pm 14.2 12.4 12.1 87 1.1 N 13 17 7 9 1010.9 1010.9 2.8
21/03:00pm 13.5 13.0 12.1 91 0.8 NE 6 11 3 6 1011.3 1011.3 2.8
21/02:30pm 13.4 11.7 12.3 93 0.6 NE 13 17 7 9 1011.3 1011.3 2.8
21/02:00pm 13.0 10.6 12.8 99 0.1 NE 17 22 9 12 1011.6 1011.6 2.8
21/01:30pm 12.1 9.8 11.9 99 0.1 NE 15 17 8 9 1012.2 1012.2 2.8
21/01:00pm 11.3 10.5 11.1 99 0.1 NNE 6 9 3 5 1013.2 1013.2 2.8
21/12:30pm 10.9 9.1 10.7 99 0.1 NNW 11 13 6 7 1014.1 1014.1 1.8
21/12:00pm 10.5 9.8 10.2 98 0.2 N 4 7 2 4 1015.0 1015.0 0.4
21/11:30am 11.0 10.1 10.8 99 0.1 ENE 6 7 3 4 1014.7 1014.7 0.4
21/11:00am 10.1 9.4 10.0 99 0.1 NNE 4 6 2 3 1015.5 1015.5 0.2
21/10:30am 10.0 9.3 9.9 99 0.1 NE 4 6 2 3 1016.1 1016.1 0.2
21/10:00am 9.5 8.1 9.4 99 0.0 NNE 7 11 4 6 1016.2 1016.2 0.0
21/09:30am 9.2 7.3 9.1 99 0.0 N 9 13 5 7 1016.5 1016.5 0.0
21/09:00am 8.6 6.2 8.5 99 0.0 NE 11 13 6 7 1016.6 1016.6 0.2
21/08:30am 8.2 5.7 8.1 99 0.0 NE 11 17 6 9 1016.8 1016.8 0.2
21/08:00am 8.1 5.6 8.0 99 0.0 NE 11 13 6 7 1017.0 1017.0 0.2
21/07:30am 8.1 5.6 8.0 99 0.0 ENE 11 15 6 8 1017.1 1017.1 0.2

Latest Capital City Observations: Canberra | Sydney | Melbourne | Brisbane | Adelaide | Perth | Hobart | Darwin

Other Formats:

Comma delimited format used in spreadsheet applications
http://www.bom.gov.au/fwo/IDV60901/IDV60901.94892.axf

JavaScript Object Notation format (JSON) in row-major order
http://www.bom.gov.au/fwo/IDV60901/IDV60901.94892.json